KRNP

Owosso Community Airport

Owosso, Michigan, USA
METAR KRNP 201655Z AUTO 28013KT 10SM SCT048 BKN050 BKN070 12/01 A2965 RMK AO2 T01160007
Observed Flight Rules
Oct-20 @ 16:55 UTC (17 minutes ago) Visual Flight Rules
Wind Visibility Clouds
280° at 13 knots 10 miles
  • Scattered at 4,800' AGL
  • Broken at 5,000' AGL
  • Broken at 7,000' AGL
Temperatures Readings
Current 12°C / 54°F
Dewpoint 1°C / 34°F
Humidity 47%
Altimeter 29.65" Hg
Pressure 1004 hPa
Elevation 224
METAR KRNP 201655Z AUTO 28013KT 10SM SCT048 BKN050 BKN070 12/01 A2965 RMK AO2 T01160007
Observed Flight Rules
Oct-20 @ 16:55 UTC
(17 minutes ago)
VFR
Wind Visibility
280° at 13 knots 10 miles
Clouds
  • Scattered at 4,800' AGL
  • Broken at 5,000' AGL
  • Broken at 7,000' AGL
Temperature Dewpoint
12°C / 54°F 1°C / 34°F
Humidity Altimeter Pressure
47% 29.65" Hg 1004 hPa